Time;durP1;ratioP1;P1;durP2;ratioP2;P2;SDS_P1;SDS_P2;PMS_P1;PMS_P2;Temp;Humidity;BMP_temperature;BMP_pressure;BME280_temperature;BME280_humidity;BME280_pressure;Samples;Min_cycle;Max_cycle;Signal;HPM_P1;HPM_P2
2023/05/24 00:02:12;;;;;;;5.60;2.95;;;11.70;76.50;;;;;;4934420;29;20044;-68
2023/05/24 00:04:40;;;;;;;11.88;3.20;;;11.70;76.50;;;;;;4934519;29;20036;-67
2023/05/24 00:07:08;;;;;;;7.43;3.15;;;11.70;76.20;;;;;;4934736;29;20032;-67
2023/05/24 00:09:35;;;;;;;10.50;3.28;;;11.70;75.90;;;;;;4939385;29;20039;-67
2023/05/24 00:12:03;;;;;;;11.07;3.33;;;11.80;75.70;;;;;;4947035;29;20454;-67
2023/05/24 00:14:30;;;;;;;10.43;3.47;;;11.80;75.50;;;;;;4956527;29;20050;-67
2023/05/24 00:16:58;;;;;;;10.77;3.45;;;11.80;75.10;;;;;;4940368;29;20043;-67
2023/05/24 00:19:26;;;;;;;9.55;3.33;;;11.90;74.70;;;;;;4937336;29;20032;-68
2023/05/24 00:21:54;;;;;;;8.82;3.08;;;11.90;74.60;;;;;;4937686;29;20039;-68
2023/05/24 00:24:21;;;;;;;11.55;3.08;;;12.00;74.30;;;;;;4920547;29;20077;-67
2023/05/24 00:26:49;;;;;;;14.68;4.15;;;12.00;74.20;;;;;;4937468;29;20044;-68
2023/05/24 00:29:16;;;;;;;11.75;3.40;;;12.10;74.00;;;;;;4954498;29;20062;-68
2023/05/24 00:31:44;;;;;;;10.25;3.13;;;12.10;73.80;;;;;;4940520;29;20036;-68
2023/05/24 00:34:11;;;;;;;9.00;3.28;;;12.20;73.30;;;;;;4931127;29;20050;-68
2023/05/24 00:36:39;;;;;;;9.10;3.03;;;12.20;73.00;;;;;;4935970;29;20083;-68
2023/05/24 00:39:06;;;;;;;14.23;4.03;;;12.30;72.90;;;;;;4936094;29;20071;-68
2023/05/24 00:41:33;;;;;;;6.25;3.10;;;12.30;72.50;;;;;;4937444;29;20067;-67
2023/05/24 00:44:01;;;;;;;8.45;3.15;;;12.30;72.40;;;;;;4920538;29;20036;-67
2023/05/24 00:46:30;;;;;;;6.88;3.15;;;12.40;72.20;;;;;;4936288;29;20071;-68
2023/05/24 00:48:57;;;;;;;11.27;3.42;;;12.40;72.00;;;;;;4936541;29;20058;-67
2023/05/24 00:51:26;;;;;;;9.50;3.65;;;12.50;71.90;;;;;;4937457;29;20051;-68
2023/05/24 00:53:53;;;;;;;7.95;3.15;;;12.60;71.80;;;;;;4920640;29;20044;-67
2023/05/24 00:56:21;;;;;;;11.32;4.07;;;12.60;71.40;;;;;;4937298;29;20038;-68
2023/05/24 00:58:49;;;;;;;9.93;2.90;;;12.70;71.10;;;;;;4920189;29;20039;-67
2023/05/24 01:01:17;;;;;;;9.20;3.10;;;12.70;70.80;;;;;;4920273;29;20043;-67
2023/05/24 01:03:45;;;;;;;13.35;3.70;;;12.70;70.30;;;;;;4920607;29;20043;-68
2023/05/24 01:06:14;;;;;;;9.82;3.05;;;12.70;69.90;;;;;;4937042;29;20115;-68
2023/05/24 01:09:01;;;;;;;9.83;3.77;;;12.80;69.90;;;;;;4920496;29;20028;-68
2023/05/24 01:11:47;;;;;;;8.93;3.47;;;12.80;69.90;;;;;;4922412;29;20270;-68
2023/05/24 01:14:20;;;;;;;8.25;3.35;;;12.90;69.90;;;;;;4936950;29;20040;-67
2023/05/24 01:16:50;;;;;;;13.52;3.10;;;13.00;69.50;;;;;;4936487;29;20075;-67
2023/05/24 01:19:33;;;;;;;10.70;3.75;;;13.00;68.90;;;;;;4936409;29;20043;-67
2023/05/24 01:22:10;;;;;;;8.45;3.17;;;13.00;68.80;;;;;;4936893;29;20043;-68
2023/05/24 01:25:03;;;;;;;8.02;2.95;;;13.10;68.40;;;;;;4917571;29;20059;-67
2023/05/24 01:27:31;;;;;;;10.70;3.60;;;13.20;68.20;;;;;;4933133;29;20135;-67
2023/05/24 01:29:59;;;;;;;13.30;4.13;;;13.20;68.20;;;;;;4910798;29;20091;-67
2023/05/24 01:32:27;;;;;;;7.65;3.33;;;13.20;68.30;;;;;;4899758;29;20164;-68
2023/05/24 01:34:54;;;;;;;12.00;3.35;;;13.20;68.30;;;;;;4926432;29;20031;-68
2023/05/24 01:37:22;;;;;;;16.20;4.10;;;13.30;68.00;;;;;;4932622;29;20027;-68
2023/05/24 01:39:49;;;;;;;10.10;3.95;;;13.40;67.80;;;;;;4929957;29;20517;-67
2023/05/24 01:42:21;;;;;;;9.65;3.50;;;13.50;67.80;;;;;;4935259;29;20035;-67
2023/05/24 01:44:55;;;;;;;12.68;3.40;;;13.50;67.60;;;;;;4934827;29;20032;-67
2023/05/24 01:47:28;;;;;;;7.72;3.17;;;13.60;67.00;;;;;;4935051;29;20115;-67
2023/05/24 01:49:59;;;;;;;8.25;3.30;;;13.60;66.70;;;;;;4936811;29;20095;-67
2023/05/24 01:52:28;;;;;;;13.68;3.05;;;13.60;66.40;;;;;;4918069;29;20034;-68
2023/05/24 01:54:56;;;;;;;8.98;3.30;;;13.70;66.10;;;;;;4918991;29;20039;-67
2023/05/24 01:57:24;;;;;;;6.50;2.90;;;13.70;66.20;;;;;;4919302;29;20028;-67
2023/05/24 01:59:51;;;;;;;11.00;2.60;;;13.70;66.50;;;;;;4903933;29;20036;-67
2023/05/24 02:02:19;;;;;;;8.45;2.97;;;13.80;66.10;;;;;;4918840;29;20044;-67
2023/05/24 02:04:46;;;;;;;9.57;3.22;;;13.80;65.70;;;;;;4918966;29;20036;-67
2023/05/24 02:07:14;;;;;;;5.63;2.50;;;13.90;64.90;;;;;;4935828;29;20036;-67
2023/05/24 02:09:41;;;;;;;7.20;2.70;;;14.00;65.20;;;;;;4935928;29;20119;-67
2023/05/24 02:12:09;;;;;;;11.57;3.35;;;14.00;65.00;;;;;;4935738;29;20076;-67
2023/05/24 05:20:14;;;;;;;15.05;3.00;;;16.40;65.80;;;;;;4936394;29;20368;-68
2023/05/24 05:22:50;;;;;;;8.93;3.10;;;16.30;66.40;;;;;;4942087;29;20047;-67
2023/05/24 05:25:18;;;;;;;5.72;2.92;;;16.30;66.60;;;;;;4956053;29;20039;-69
2023/05/24 05:27:45;;;;;;;12.45;3.10;;;16.30;67.20;;;;;;4954042;28;20036;-69
2023/05/24 05:30:13;;;;;;;8.07;2.90;;;16.30;67.60;;;;;;4956024;29;20023;-69
2023/05/24 05:32:40;;;;;;;8.38;3.28;;;16.30;68.20;;;;;;4955821;29;20070;-69
2023/05/24 05:35:08;;;;;;;17.88;3.40;;;16.20;68.70;;;;;;4938789;29;20118;-69
2023/05/24 05:37:36;;;;;;;11.02;3.35;;;16.20;69.20;;;;;;4952711;28;20050;-67
2023/05/24 05:40:03;;;;;;;7.07;2.75;;;16.20;69.80;;;;;;4922799;29;20063;-67
2023/05/24 05:42:30;;;;;;;9.73;2.85;;;16.20;70.10;;;;;;4936236;29;20510;-67
2023/05/24 05:44:58;;;;;;;11.32;2.90;;;16.20;70.50;;;;;;4936966;29;20127;-67
2023/05/24 05:47:25;;;;;;;7.93;2.80;;;16.20;70.70;;;;;;4936425;29;20024;-67
2023/05/24 05:49:53;;;;;;;10.75;3.13;;;16.20;71.10;;;;;;4936718;29;20460;-65
2023/05/24 05:52:20;;;;;;;12.18;3.60;;;16.10;71.20;;;;;;4952699;29;20043;-66
2023/05/24 05:54:47;;;;;;;14.65;3.38;;;16.10;71.40;;;;;;4952640;29;20048;-67
2023/05/24 05:57:18;;;;;;;9.48;3.53;;;16.10;71.50;;;;;;4952394;28;20069;-67
2023/05/24 05:59:45;;;;;;;9.02;3.00;;;16.20;71.30;;;;;;4932109;29;20046;-66
2023/05/24 06:02:13;;;;;;;17.75;3.60;;;16.20;71.00;;;;;;4923707;29;20043;-66
2023/05/24 06:04:40;;;;;;;16.80;3.60;;;16.20;70.70;;;;;;4931644;29;20502;-66
2023/05/24 06:07:08;;;;;;;14.50;3.38;;;16.20;70.20;;;;;;4911218;29;20036;-66
2023/05/24 06:09:35;;;;;;;19.73;3.25;;;16.30;70.20;;;;;;4901331;29;20506;-65
2023/05/24 06:12:02;;;;;;;12.63;3.15;;;16.20;70.30;;;;;;4952208;29;20411;-64
2023/05/24 06:14:31;;;;;;;9.93;2.78;;;16.20;70.30;;;;;;4951717;29;20061;-65
2023/05/24 06:16:58;;;;;;;7.50;2.92;;;16.20;70.60;;;;;;4952145;29;20178;-66
2023/05/24 06:19:26;;;;;;;10.48;2.88;;;16.20;71.00;;;;;;4945419;28;20182;-65
2023/05/24 06:21:53;;;;;;;12.10;3.20;;;16.20;71.40;;;;;;4934370;29;20074;-67
2023/05/24 06:24:21;;;;;;;10.68;3.03;;;16.20;71.90;;;;;;4915725;29;20127;-67
2023/05/24 06:26:51;;;;;;;8.63;2.58;;;16.20;72.20;;;;;;4932146;29;20055;-67
2023/05/24 06:29:20;;;;;;;10.63;2.97;;;16.10;72.50;;;;;;4932815;29;20494;-68
2023/05/24 06:31:48;;;;;;;8.93;2.55;;;16.10;72.70;;;;;;4947432;29;20039;-67
2023/05/24 06:34:16;;;;;;;9.43;2.83;;;16.10;73.10;;;;;;4951685;29;20400;-69
2023/05/24 06:36:46;;;;;;;6.05;2.40;;;16.00;73.60;;;;;;4929809;29;20114;-67
2023/05/24 06:39:14;;;;;;;12.35;2.85;;;16.00;73.80;;;;;;4915793;29;20044;-67
2023/05/24 06:41:42;;;;;;;10.75;2.80;;;16.00;73.90;;;;;;4936787;29;20071;-68
2023/05/24 06:44:09;;;;;;;7.30;2.83;;;16.00;74.10;;;;;;4951001;29;20047;-67
2023/05/24 06:46:36;;;;;;;9.20;3.10;;;15.90;74.40;;;;;;4951741;29;20053;-67
2023/05/24 06:53:55;;;;;;;12.80;3.13;;;15.80;75.00;;;;;;4932834;28;20134;-67
2023/05/24 06:56:22;;;;;;;10.35;3.13;;;15.80;75.30;;;;;;4931774;29;20048;-67
2023/05/24 06:58:49;;;;;;;9.07;2.88;;;15.80;75.60;;;;;;4913776;29;20054;-67
2023/05/24 07:01:17;;;;;;;19.02;3.08;;;15.80;75.70;;;;;;4917947;29;20521;-67
2023/05/24 07:03:44;;;;;;;11.20;3.40;;;15.80;75.80;;;;;;4950725;29;20039;-67
2023/05/24 07:06:13;;;;;;;9.70;2.75;;;15.80;76.00;;;;;;4940275;29;20042;-67
2023/05/24 07:08:41;;;;;;;11.98;3.30;;;15.80;76.20;;;;;;4932210;29;20035;-67
2023/05/24 07:11:08;;;;;;;9.93;3.10;;;15.70;76.30;;;;;;4932143;29;20046;-67
2023/05/24 07:13:36;;;;;;;11.45;3.60;;;15.70;76.50;;;;;;4931881;29;20059;-67
2023/05/24 07:16:05;;;;;;;13.35;3.60;;;15.60;76.60;;;;;;4925156;29;20127;-67
2023/05/24 07:18:32;;;;;;;11.27;3.63;;;15.60;76.80;;;;;;4936751;29;20050;-68
2023/05/24 07:21:00;;;;;;;15.77;3.35;;;15.50;77.00;;;;;;4957247;29;20040;-68
2023/05/24 07:23:27;;;;;;;13.63;4.10;;;15.50;77.20;;;;;;4956433;28;20134;-67
2023/05/24 07:25:55;;;;;;;8.38;3.88;;;15.40;77.50;;;;;;4957240;29;20043;-68
2023/05/24 07:28:22;;;;;;;11.27;3.72;;;15.40;77.60;;;;;;4957688;28;20110;-67
2023/05/24 07:30:50;;;;;;;10.18;3.45;;;15.40;77.70;;;;;;4914064;29;20127;-67
2023/05/24 07:33:17;;;;;;;10.00;3.65;;;15.30;77.80;;;;;;4926392;29;20044;-67
2023/05/24 07:35:50;;;;;;;12.07;3.47;;;15.40;77.90;;;;;;4938310;29;20394;-68
2023/05/24 07:38:18;;;;;;;12.48;3.80;;;15.30;77.90;;;;;;4903614;29;20048;-68
2023/05/24 07:40:45;;;;;;;12.27;3.47;;;15.30;78.00;;;;;;4918966;29;20032;-68
2023/05/24 07:43:12;;;;;;;8.70;2.85;;;15.30;78.00;;;;;;4918817;29;20494;-68
2023/05/24 07:45:40;;;;;;;11.10;3.75;;;15.20;78.20;;;;;;4953536;28;20105;-67
2023/05/24 07:48:07;;;;;;;14.07;3.38;;;15.20;78.40;;;;;;4944286;29;20465;-67
2023/05/24 07:50:35;;;;;;;9.60;3.60;;;15.20;78.40;;;;;;4935774;29;20035;-67
2023/05/24 07:53:04;;;;;;;8.60;3.60;;;15.20;78.50;;;;;;4930858;29;20553;-68
2023/05/24 07:55:31;;;;;;;11.02;3.58;;;15.20;78.60;;;;;;4939481;28;20052;-68
2023/05/24 07:58:02;;;;;;;8.65;3.88;;;15.10;78.80;;;;;;4938952;29;20071;-68
2023/05/24 08:00:29;;;;;;;15.45;3.70;;;15.10;78.80;;;;;;4936078;29;20513;-68
2023/05/24 08:02:56;;;;;;;8.63;3.65;;;15.10;78.90;;;;;;4938040;29;20051;-68
2023/05/24 08:05:24;;;;;;;9.13;3.70;;;15.00;79.00;;;;;;4936914;29;20840;-69
2023/05/24 08:07:52;;;;;;;8.55;3.45;;;15.00;79.20;;;;;;4938342;29;20462;-68
2023/05/24 08:10:20;;;;;;;15.55;4.05;;;15.00;79.30;;;;;;4938391;29;20043;-69
2023/05/24 08:12:50;;;;;;;10.68;4.00;;;15.00;79.50;;;;;;4937637;29;20127;-71
2023/05/24 08:15:17;;;;;;;11.05;3.88;;;15.00;79.50;;;;;;4936561;29;20489;-70
2023/05/24 08:17:45;;;;;;;10.75;3.33;;;15.00;79.50;;;;;;4937556;29;20038;-74
2023/05/24 08:20:16;;;;;;;13.07;3.92;;;14.90;79.40;;;;;;4925343;29;20035;-72
2023/05/24 08:22:44;;;;;;;15.23;3.58;;;14.90;79.50;;;;;;4940168;28;20042;-74
2023/05/24 08:25:11;;;;;;;9.77;3.50;;;15.00;79.50;;;;;;4951548;28;20035;-72
2023/05/24 08:27:39;;;;;;;13.60;3.53;;;14.90;79.30;;;;;;4937770;29;20046;-72
2023/05/24 08:30:07;;;;;;;12.30;3.63;;;14.90;79.20;;;;;;4937727;29;20374;-71
2023/05/24 08:32:35;;;;;;;9.68;3.67;;;14.90;79.30;;;;;;4953729;29;20031;-71
2023/05/24 08:35:02;;;;;;;6.43;3.20;;;14.90;79.30;;;;;;4933565;29;20402;-71
2023/05/24 08:37:31;;;;;;;7.22;3.35;;;14.80;79.30;;;;;;4935995;29;20044;-70
2023/05/24 08:39:58;;;;;;;9.13;3.72;;;14.80;79.40;;;;;;4943860;29;20243;-69
2023/05/24 08:42:26;;;;;;;9.65;3.55;;;14.80;79.50;;;;;;4941940;29;20038;-69
2023/05/24 08:45:14;;;;;;;10.38;3.63;;;14.80;79.60;;;;;;4929515;29;20091;-69
2023/05/24 08:47:41;;;;;;;8.23;4.25;;;14.70;79.50;;;;;;4947592;28;20039;-68
2023/05/24 08:50:09;;;;;;;8.25;3.83;;;14.80;79.60;;;;;;4950496;29;20062;-69
2023/05/24 08:52:36;;;;;;;15.23;4.47;;;14.80;79.50;;;;;;4936369;29;20048;-69
2023/05/24 08:55:07;;;;;;;10.35;4.00;;;14.70;79.60;;;;;;4952752;28;20043;-69
2023/05/24 08:57:38;;;;;;;11.07;4.13;;;14.70;79.70;;;;;;4953749;28;20046;-68
2023/05/24 09:00:10;;;;;;;10.27;3.97;;;14.80;79.80;;;;;;4936954;29;20063;-69
2023/05/24 09:02:38;;;;;;;10.55;4.00;;;14.80;79.90;;;;;;4949457;29;20062;-69
2023/05/24 09:05:08;;;;;;;8.18;3.65;;;14.80;80.00;;;;;;4916309;29;20389;-68
2023/05/24 09:07:36;;;;;;;8.02;3.90;;;14.70;80.10;;;;;;4918385;29;20482;-69
2023/05/24 13:55:37;;;;;;;15.20;6.75;;;12.30;82.70;;;;;;4942240;28;20070;-66
2023/05/24 13:58:04;;;;;;;17.45;8.05;;;12.30;82.20;;;;;;4935876;29;20047;-67
2023/05/24 14:00:33;;;;;;;18.15;7.57;;;12.20;81.90;;;;;;4935750;29;20399;-67
2023/05/24 14:03:00;;;;;;;19.40;8.25;;;12.30;82.00;;;;;;4954006;28;20038;-67
2023/05/24 14:05:29;;;;;;;27.85;8.80;;;12.30;82.20;;;;;;4937100;29;20032;-67
2023/05/24 14:08:02;;;;;;;19.13;7.30;;;12.30;82.30;;;;;;4955295;28;20104;-67
2023/05/24 14:10:30;;;;;;;16.25;7.13;;;12.30;82.10;;;;;;4954486;28;20077;-67
2023/05/24 14:12:57;;;;;;;17.88;6.32;;;12.30;81.90;;;;;;4962507;28;20174;-67
2023/05/24 14:15:25;;;;;;;14.13;6.43;;;12.20;82.00;;;;;;4954799;29;20046;-67
2023/05/24 14:17:52;;;;;;;16.58;7.43;;;12.20;82.30;;;;;;4964675;28;20027;-67
2023/05/24 14:20:20;;;;;;;20.48;6.82;;;12.20;82.20;;;;;;4956434;28;20121;-67
2023/05/24 14:22:47;;;;;;;14.70;6.75;;;12.10;82.10;;;;;;4966931;28;20250;-67
2023/05/24 14:25:15;;;;;;;14.82;6.55;;;12.10;82.40;;;;;;4970628;28;20097;-67
2023/05/24 14:27:42;;;;;;;14.93;6.88;;;12.00;82.50;;;;;;4955624;28;20033;-67
2023/05/24 14:30:10;;;;;;;15.82;6.82;;;12.00;82.40;;;;;;4973929;28;20035;-67
2023/05/24 14:32:38;;;;;;;16.60;6.95;;;12.00;82.60;;;;;;4968043;28;20027;-67
2023/05/24 14:35:06;;;;;;;15.65;6.70;;;12.00;82.70;;;;;;4954500;29;20070;-67
2023/05/24 14:37:33;;;;;;;14.05;5.70;;;12.00;82.70;;;;;;4966869;28;20031;-67
2023/05/24 14:40:01;;;;;;;16.25;6.50;;;12.00;82.80;;;;;;4954461;28;20486;-68
2023/05/24 14:42:28;;;;;;;14.25;6.05;;;11.90;82.80;;;;;;4953180;28;20067;-67
2023/05/24 14:44:55;;;;;;;17.25;7.05;;;12.00;82.80;;;;;;4954567;29;20401;-67
2023/05/24 14:47:23;;;;;;;13.65;6.20;;;12.00;82.70;;;;;;4956143;28;20039;-67
2023/05/24 14:49:50;;;;;;;9.57;5.43;;;11.90;82.70;;;;;;4950161;28;20035;-67
2023/05/24 14:52:18;;;;;;;13.27;5.57;;;11.90;83.00;;;;;;4936316;28;20122;-66
2023/05/24 15:41:22;;;;;;;17.27;6.60;;;11.50;83.20;;;;;;4957888;28;20058;-67
2023/05/24 15:43:51;;;;;;;13.45;5.45;;;11.40;83.30;;;;;;4947777;28;20063;-66
2023/05/24 15:46:21;;;;;;;16.02;5.38;;;11.30;83.40;;;;;;4957603;29;20067;-67
2023/05/24 15:48:48;;;;;;;15.30;6.40;;;11.30;83.50;;;;;;4957684;28;20077;-67
2023/05/24 15:51:16;;;;;;;13.65;6.07;;;11.40;83.40;;;;;;4957779;29;20114;-67
2023/05/24 15:53:43;;;;;;;14.80;5.53;;;11.30;83.20;;;;;;4956229;28;20051;-67
2023/05/24 15:56:11;;;;;;;12.30;5.53;;;11.30;83.20;;;;;;4957605;29;20066;-67
2023/05/24 15:58:38;;;;;;;13.85;5.65;;;11.30;83.10;;;;;;4957612;28;20147;-67
2023/05/24 16:01:06;;;;;;;13.15;5.28;;;11.30;83.00;;;;;;4956939;28;20406;-67
2023/05/24 16:03:33;;;;;;;12.55;6.20;;;11.40;82.70;;;;;;4956676;28;21237;-66
2023/05/24 16:06:00;;;;;;;12.27;5.05;;;11.40;82.30;;;;;;4972995;28;20042;-66
2023/05/24 16:08:28;;;;;;;13.73;5.80;;;11.40;82.10;;;;;;4957301;28;20039;-67
2023/05/24 16:10:56;;;;;;;10.43;5.30;;;11.40;82.00;;;;;;4957554;29;20067;-67
2023/05/24 16:13:23;;;;;;;12.43;5.50;;;11.40;82.00;;;;;;4956575;28;20044;-67
2023/05/24 16:15:51;;;;;;;11.23;5.70;;;11.40;81.70;;;;;;4955869;28;20039;-67
2023/05/24 16:18:22;;;;;;;11.65;5.18;;;11.40;81.60;;;;;;4956930;28;20106;-67
2023/05/24 16:20:49;;;;;;;11.80;4.68;;;11.40;81.40;;;;;;4960528;28;20042;-67
2023/05/24 16:23:18;;;;;;;12.90;4.78;;;11.40;81.40;;;;;;4974183;28;20042;-67
2023/05/24 16:25:45;;;;;;;12.40;5.28;;;11.30;81.60;;;;;;4958204;28;20162;-67
2023/05/24 16:28:13;;;;;;;10.10;5.25;;;11.30;81.80;;;;;;4956259;28;20036;-67
2023/05/24 16:30:40;;;;;;;11.32;5.00;;;11.30;82.10;;;;;;4956934;29;20035;-67
2023/05/24 16:33:08;;;;;;;11.77;5.38;;;11.30;82.10;;;;;;4966052;28;20125;-68
2023/05/24 16:35:35;;;;;;;11.48;5.43;;;11.30;82.30;;;;;;4960599;28;20216;-67
2023/05/24 16:38:02;;;;;;;10.50;5.30;;;11.30;82.30;;;;;;4943998;28;20035;-67
2023/05/24 16:40:30;;;;;;;13.85;5.45;;;11.30;82.30;;;;;;4937538;29;20066;-66
2023/05/24 16:45:44;;;;;;;14.30;5.10;;;11.20;82.20;;;;;;4952405;28;20049;-67
2023/05/24 16:48:12;;;;;;;15.20;4.70;;;11.20;82.50;;;;;;4939452;29;20398;-67
2023/05/24 16:50:40;;;;;;;12.77;5.22;;;11.20;82.50;;;;;;4955574;28;20043;-67
2023/05/24 16:53:08;;;;;;;16.88;5.15;;;11.10;82.50;;;;;;4956810;29;20385;-66
2023/05/24 16:55:35;;;;;;;8.25;4.47;;;11.10;82.90;;;;;;4939128;29;20037;-67
2023/05/24 16:58:03;;;;;;;15.77;5.00;;;11.00;83.20;;;;;;4971087;28;20039;-66
2023/05/24 17:00:30;;;;;;;12.68;4.72;;;10.90;83.20;;;;;;4956610;29;20054;-67
2023/05/24 17:02:59;;;;;;;12.20;4.90;;;10.90;83.20;;;;;;4956576;28;20032;-67
2023/05/24 17:05:26;;;;;;;13.52;4.68;;;10.90;83.60;;;;;;4956076;28;20413;-67
2023/05/24 17:07:55;;;;;;;8.43;4.82;;;10.90;83.50;;;;;;4955621;28;20051;-67
2023/05/24 17:10:22;;;;;;;10.88;5.07;;;10.80;83.10;;;;;;4964440;28;20043;-67
2023/05/24 17:12:49;;;;;;;15.40;5.20;;;10.80;83.20;;;;;;4975507;28;20508;-67
2023/05/24 17:15:17;;;;;;;10.48;5.22;;;10.80;83.30;;;;;;4962937;28;20094;-67
2023/05/24 17:17:44;;;;;;;9.68;4.63;;;10.80;83.30;;;;;;4958268;28;20031;-67
2023/05/24 17:20:13;;;;;;;7.65;4.68;;;10.80;83.30;;;;;;4975036;28;20389;-67
2023/05/24 17:22:40;;;;;;;14.55;5.00;;;10.80;83.30;;;;;;4973431;28;20081;-67
2023/05/24 17:25:08;;;;;;;9.93;5.10;;;10.70;83.20;;;;;;4964344;28;20035;-67
2023/05/24 17:27:36;;;;;;;12.10;4.88;;;10.80;83.30;;;;;;4956169;28;20082;-67
2023/05/24 17:30:04;;;;;;;11.90;5.13;;;10.70;83.50;;;;;;4956564;28;20046;-67
2023/05/24 17:32:32;;;;;;;11.30;4.93;;;10.70;83.50;;;;;;4951771;28;20367;-67
2023/05/24 17:34:59;;;;;;;12.27;4.60;;;10.70;83.70;;;;;;4969029;28;20061;-67
2023/05/24 17:37:26;;;;;;;11.23;4.70;;;10.70;83.70;;;;;;4975263;28;20385;-67
2023/05/24 17:39:54;;;;;;;17.00;5.15;;;10.70;83.70;;;;;;4958510;28;20045;-67
2023/05/24 17:42:23;;;;;;;10.98;4.75;;;10.70;83.70;;;;;;4955949;29;20117;-67
